sensor_id;sensor_type;location;lat;lon;timestamp;temperature;humidity
15789;DHT22;59075;50.670;6.474;2022-07-04T00:02:10;23.40;99.90
15789;DHT22;59075;50.670;6.474;2022-07-04T00:04:38;23.40;99.90
15789;DHT22;59075;50.670;6.474;2022-07-04T00:07:05;23.40;99.90
15789;DHT22;59075;50.670;6.474;2022-07-04T00:09:32;23.40;99.90
15789;DHT22;59075;50.670;6.474;2022-07-04T00:14:26;23.40;99.90
15789;DHT22;59075;50.670;6.474;2022-07-04T00:16:53;23.30;99.90
15789;DHT22;59075;50.670;6.474;2022-07-04T00:19:19;23.30;99.90
15789;DHT22;59075;50.670;6.474;2022-07-04T00:21:47;23.40;99.90
15789;DHT22;59075;50.670;6.474;2022-07-04T00:24:14;23.30;99.90
15789;DHT22;59075;50.670;6.474;2022-07-04T00:26:41;23.30;99.90
15789;DHT22;59075;50.670;6.474;2022-07-04T00:29:08;23.30;99.90
15789;DHT22;59075;50.670;6.474;2022-07-04T00:31:37;23.30;99.90
15789;DHT22;59075;50.670;6.474;2022-07-04T00:34:04;23.30;99.90
15789;DHT22;59075;50.670;6.474;2022-07-04T00:36:31;23.30;99.90
15789;DHT22;59075;50.670;6.474;2022-07-04T00:38:59;23.30;99.90
15789;DHT22;59075;50.670;6.474;2022-07-04T00:44:02;23.30;99.90
15789;DHT22;59075;50.670;6.474;2022-07-04T00:46:29;23.30;99.90
15789;DHT22;59075;50.670;6.474;2022-07-04T00:48:56;23.30;99.90
15789;DHT22;59075;50.670;6.474;2022-07-04T00:51:23;23.30;99.90
15789;DHT22;59075;50.670;6.474;2022-07-04T00:53:50;23.30;99.90
15789;DHT22;59075;50.670;6.474;2022-07-04T00:56:20;23.30;99.90
15789;DHT22;59075;50.670;6.474;2022-07-04T00:58:47;23.30;99.90
15789;DHT22;59075;50.670;6.474;2022-07-04T01:01:14;23.20;99.90
15789;DHT22;59075;50.670;6.474;2022-07-04T01:03:42;23.30;99.90
15789;DHT22;59075;50.670;6.474;2022-07-04T01:06:09;23.20;99.90
15789;DHT22;59075;50.670;6.474;2022-07-04T01:08:36;23.20;99.90
15789;DHT22;59075;50.670;6.474;2022-07-04T01:11:03;23.20;99.90
15789;DHT22;59075;50.670;6.474;2022-07-04T01:13:32;23.20;99.90
15789;DHT22;59075;50.670;6.474;2022-07-04T01:15:59;23.20;99.90
15789;DHT22;59075;50.670;6.474;2022-07-04T01:18:26;23.20;99.90
15789;DHT22;59075;50.670;6.474;2022-07-04T01:20:54;23.20;99.90
15789;DHT22;59075;50.670;6.474;2022-07-04T01:23:21;23.20;99.90
15789;DHT22;59075;50.670;6.474;2022-07-04T01:25:48;23.20;99.90
15789;DHT22;59075;50.670;6.474;2022-07-04T01:28:15;23.20;99.90
15789;DHT22;59075;50.670;6.474;2022-07-04T01:30:42;23.20;99.90
15789;DHT22;59075;50.670;6.474;2022-07-04T01:33:09;23.20;99.90
15789;DHT22;59075;50.670;6.474;2022-07-04T01:35:36;23.10;99.90
15789;DHT22;59075;50.670;6.474;2022-07-04T01:38:04;23.10;99.90
15789;DHT22;59075;50.670;6.474;2022-07-04T01:40:30;23.10;99.90
15789;DHT22;59075;50.670;6.474;2022-07-04T01:42:57;23.10;99.90
15789;DHT22;59075;50.670;6.474;2022-07-04T01:45:24;23.10;99.90
15789;DHT22;59075;50.670;6.474;2022-07-04T01:47:51;23.10;99.90
15789;DHT22;59075;50.670;6.474;2022-07-04T01:50:18;23.10;99.90
15789;DHT22;59075;50.670;6.474;2022-07-04T01:52:44;23.10;99.90
15789;DHT22;59075;50.670;6.474;2022-07-04T01:55:13;23.10;99.90
15789;DHT22;59075;50.670;6.474;2022-07-04T01:57:39;23.10;99.90
15789;DHT22;59075;50.670;6.474;2022-07-04T02:00:09;23.10;99.90
15789;DHT22;59075;50.670;6.474;2022-07-04T02:02:54;23.10;99.90
15789;DHT22;59075;50.670;6.474;2022-07-04T02:05:21;23.10;99.90
15789;DHT22;59075;50.670;6.474;2022-07-04T02:07:48;23.10;99.90
15789;DHT22;59075;50.670;6.474;2022-07-04T02:10:18;23.00;99.90
15789;DHT22;59075;50.670;6.474;2022-07-04T02:12:45;23.00;99.90
15789;DHT22;59075;50.670;6.474;2022-07-04T02:15:30;23.10;99.90
15789;DHT22;59075;50.670;6.474;2022-07-04T02:20:25;23.00;99.90
15789;DHT22;59075;50.670;6.474;2022-07-04T02:22:52;23.00;99.90
15789;DHT22;59075;50.670;6.474;2022-07-04T02:25:20;23.00;99.90
15789;DHT22;59075;50.670;6.474;2022-07-04T02:30:14;23.00;99.90
15789;DHT22;59075;50.670;6.474;2022-07-04T02:32:41;23.00;99.90
15789;DHT22;59075;50.670;6.474;2022-07-04T02:35:08;23.00;99.90
15789;DHT22;59075;50.670;6.474;2022-07-04T02:37:35;23.00;99.90
15789;DHT22;59075;50.670;6.474;2022-07-04T02:40:02;23.00;99.90
15789;DHT22;59075;50.670;6.474;2022-07-04T02:42:31;23.00;99.90
15789;DHT22;59075;50.670;6.474;2022-07-04T02:44:58;23.00;99.90
15789;DHT22;59075;50.670;6.474;2022-07-04T02:47:25;23.00;99.90
15789;DHT22;59075;50.670;6.474;2022-07-04T02:49:53;23.00;99.90
15789;DHT22;59075;50.670;6.474;2022-07-04T02:52:19;23.00;99.90
15789;DHT22;59075;50.670;6.474;2022-07-04T02:54:46;23.00;99.90
15789;DHT22;59075;50.670;6.474;2022-07-04T02:57:14;23.00;99.90
15789;DHT22;59075;50.670;6.474;2022-07-04T02:59:43;22.90;99.90
15789;DHT22;59075;50.670;6.474;2022-07-04T03:02:09;22.90;99.90
15789;DHT22;59075;50.670;6.474;2022-07-04T03:04:36;22.90;99.90
15789;DHT22;59075;50.670;6.474;2022-07-04T03:07:05;22.90;99.90
15789;DHT22;59075;50.670;6.474;2022-07-04T03:09:32;22.90;99.90
15789;DHT22;59075;50.670;6.474;2022-07-04T03:11:58;22.90;99.90
15789;DHT22;59075;50.670;6.474;2022-07-04T03:14:25;22.90;99.90
15789;DHT22;59075;50.670;6.474;2022-07-04T03:16:53;22.90;99.90
15789;DHT22;59075;50.670;6.474;2022-07-04T03:19:20;22.90;99.90
15789;DHT22;59075;50.670;6.474;2022-07-04T03:21:46;22.80;99.90
15789;DHT22;59075;50.670;6.474;2022-07-04T03:24:13;22.80;99.90
15789;DHT22;59075;50.670;6.474;2022-07-04T03:26:40;22.80;99.90
15789;DHT22;59075;50.670;6.474;2022-07-04T03:29:06;22.80;99.90
15789;DHT22;59075;50.670;6.474;2022-07-04T03:34:01;22.80;99.90
15789;DHT22;59075;50.670;6.474;2022-07-04T03:36:28;22.80;99.90
15789;DHT22;59075;50.670;6.474;2022-07-04T03:38:55;22.80;99.90
15789;DHT22;59075;50.670;6.474;2022-07-04T03:41:22;22.80;99.90
15789;DHT22;59075;50.670;6.474;2022-07-04T03:43:48;22.80;99.90
15789;DHT22;59075;50.670;6.474;2022-07-04T03:46:15;22.80;99.90
15789;DHT22;59075;50.670;6.474;2022-07-04T03:48:42;22.80;99.90
15789;DHT22;59075;50.670;6.474;2022-07-04T03:51:10;22.80;99.90
15789;DHT22;59075;50.670;6.474;2022-07-04T03:53:37;22.80;99.90
15789;DHT22;59075;50.670;6.474;2022-07-04T03:56:04;22.80;99.90
15789;DHT22;59075;50.670;6.474;2022-07-04T03:58:31;22.80;99.90
15789;DHT22;59075;50.670;6.474;2022-07-04T04:00:57;22.80;99.90
15789;DHT22;59075;50.670;6.474;2022-07-04T04:03:24;22.80;99.90
15789;DHT22;59075;50.670;6.474;2022-07-04T04:06:09;22.70;99.90
15789;DHT22;59075;50.670;6.474;2022-07-04T04:08:36;22.70;99.90
15789;DHT22;59075;50.670;6.474;2022-07-04T04:11:03;22.70;99.90
15789;DHT22;59075;50.670;6.474;2022-07-04T04:13:30;22.80;99.90
15789;DHT22;59075;50.670;6.474;2022-07-04T04:15:56;22.80;99.90
15789;DHT22;59075;50.670;6.474;2022-07-04T04:18:23;22.80;99.90
15789;DHT22;59075;50.670;6.474;2022-07-04T04:20:50;22.90;99.90
15789;DHT22;59075;50.670;6.474;2022-07-04T04:23:18;22.90;99.90
15789;DHT22;59075;50.670;6.474;2022-07-04T04:25:45;23.00;99.90
15789;DHT22;59075;50.670;6.474;2022-07-04T04:28:12;23.00;99.90
15789;DHT22;59075;50.670;6.474;2022-07-04T04:30:39;23.00;99.90
15789;DHT22;59075;50.670;6.474;2022-07-04T04:33:05;23.00;99.90
15789;DHT22;59075;50.670;6.474;2022-07-04T04:35:32;23.10;99.90
15789;DHT22;59075;50.670;6.474;2022-07-04T04:40:27;23.10;99.90
15789;DHT22;59075;50.670;6.474;2022-07-04T04:42:55;23.20;99.90
15789;DHT22;59075;50.670;6.474;2022-07-04T04:45:22;23.20;99.90
15789;DHT22;59075;50.670;6.474;2022-07-04T04:47:48;23.30;99.90
15789;DHT22;59075;50.670;6.474;2022-07-04T04:50:15;23.30;99.90
15789;DHT22;59075;50.670;6.474;2022-07-04T04:52:42;23.40;99.90
15789;DHT22;59075;50.670;6.474;2022-07-04T04:55:09;23.40;99.90
15789;DHT22;59075;50.670;6.474;2022-07-04T04:57:37;23.40;99.90
15789;DHT22;59075;50.670;6.474;2022-07-04T05:00:04;23.40;99.90
15789;DHT22;59075;50.670;6.474;2022-07-04T05:02:31;23.50;99.90
15789;DHT22;59075;50.670;6.474;2022-07-04T05:04:58;23.50;99.90
15789;DHT22;59075;50.670;6.474;2022-07-04T05:07:24;23.60;99.90
15789;DHT22;59075;50.670;6.474;2022-07-04T05:09:51;23.60;99.90
15789;DHT22;59075;50.670;6.474;2022-07-04T05:14:52;23.60;99.90
15789;DHT22;59075;50.670;6.474;2022-07-04T05:17:19;23.60;99.90
15789;DHT22;59075;50.670;6.474;2022-07-04T05:19:46;23.70;99.90
15789;DHT22;59075;50.670;6.474;2022-07-04T05:22:13;23.70;99.90
15789;DHT22;59075;50.670;6.474;2022-07-04T05:24:40;23.90;99.90
15789;DHT22;59075;50.670;6.474;2022-07-04T05:27:07;23.90;99.90
15789;DHT22;59075;50.670;6.474;2022-07-04T05:29:34;23.90;99.90
15789;DHT22;59075;50.670;6.474;2022-07-04T05:32:02;23.90;99.90
15789;DHT22;59075;50.670;6.474;2022-07-04T05:34:29;23.90;99.90
15789;DHT22;59075;50.670;6.474;2022-07-04T05:36:56;23.90;99.90
15789;DHT22;59075;50.670;6.474;2022-07-04T05:39:22;23.90;99.90
15789;DHT22;59075;50.670;6.474;2022-07-04T05:41:49;23.90;99.90
15789;DHT22;59075;50.670;6.474;2022-07-04T05:44:16;23.90;99.90
15789;DHT22;59075;50.670;6.474;2022-07-04T05:49:11;23.90;99.90
15789;DHT22;59075;50.670;6.474;2022-07-04T05:51:38;23.90;99.90
15789;DHT22;59075;50.670;6.474;2022-07-04T05:56:31;24.00;99.90
15789;DHT22;59075;50.670;6.474;2022-07-04T05:58:58;24.00;99.90
15789;DHT22;59075;50.670;6.474;2022-07-04T06:01:25;24.00;99.90
15789;DHT22;59075;50.670;6.474;2022-07-04T06:03:51;24.10;99.90
15789;DHT22;59075;50.670;6.474;2022-07-04T06:06:19;24.10;99.90
15789;DHT22;59075;50.670;6.474;2022-07-04T06:08:46;24.30;99.90
15789;DHT22;59075;50.670;6.474;2022-07-04T06:11:13;24.50;99.90
15789;DHT22;59075;50.670;6.474;2022-07-04T06:13:39;24.60;99.90
15789;DHT22;59075;50.670;6.474;2022-07-04T06:16:06;24.80;99.90
15789;DHT22;59075;50.670;6.474;2022-07-04T06:18:33;24.90;99.90
15789;DHT22;59075;50.670;6.474;2022-07-04T06:21:00;24.70;99.90
15789;DHT22;59075;50.670;6.474;2022-07-04T06:23:28;24.50;99.90
15789;DHT22;59075;50.670;6.474;2022-07-04T06:25:55;24.30;99.90
15789;DHT22;59075;50.670;6.474;2022-07-04T06:28:21;24.00;99.90
15789;DHT22;59075;50.670;6.474;2022-07-04T06:30:48;23.70;99.90
15789;DHT22;59075;50.670;6.474;2022-07-04T06:33:15;23.50;99.90
15789;DHT22;59075;50.670;6.474;2022-07-04T06:35:42;23.50;99.90
15789;DHT22;59075;50.670;6.474;2022-07-04T06:38:12;23.30;99.90
15789;DHT22;59075;50.670;6.474;2022-07-04T06:40:40;23.10;99.90
15789;DHT22;59075;50.670;6.474;2022-07-04T06:43:08;23.00;99.90
15789;DHT22;59075;50.670;6.474;2022-07-04T06:45:35;22.90;99.90
15789;DHT22;59075;50.670;6.474;2022-07-04T06:48:03;22.80;99.90
15789;DHT22;59075;50.670;6.474;2022-07-04T06:50:30;22.70;99.90
15789;DHT22;59075;50.670;6.474;2022-07-04T06:52:58;22.70;99.90
15789;DHT22;59075;50.670;6.474;2022-07-04T06:55:25;22.50;99.90
15789;DHT22;59075;50.670;6.474;2022-07-04T06:57:53;22.50;99.90
15789;DHT22;59075;50.670;6.474;2022-07-04T07:00:19;22.30;99.90
15789;DHT22;59075;50.670;6.474;2022-07-04T07:02:46;22.30;99.90
15789;DHT22;59075;50.670;6.474;2022-07-04T07:05:13;22.20;99.90
15789;DHT22;59075;50.670;6.474;2022-07-04T07:07:40;22.00;99.90
15789;DHT22;59075;50.670;6.474;2022-07-04T07:10:07;22.00;99.90
15789;DHT22;59075;50.670;6.474;2022-07-04T07:15:03;21.90;99.90
15789;DHT22;59075;50.670;6.474;2022-07-04T07:17:30;21.90;99.90
15789;DHT22;59075;50.670;6.474;2022-07-04T07:19:57;21.70;99.90
15789;DHT22;59075;50.670;6.474;2022-07-04T07:24:50;21.60;99.90
15789;DHT22;59075;50.670;6.474;2022-07-04T07:27:17;21.60;99.90
15789;DHT22;59075;50.670;6.474;2022-07-04T07:32:13;21.40;99.90
15789;DHT22;59075;50.670;6.474;2022-07-04T07:34:39;21.40;99.90
15789;DHT22;59075;50.670;6.474;2022-07-04T07:37:07;21.30;99.90
15789;DHT22;59075;50.670;6.474;2022-07-04T07:39:33;21.40;99.90
15789;DHT22;59075;50.670;6.474;2022-07-04T07:44:27;21.40;99.90
15789;DHT22;59075;50.670;6.474;2022-07-04T07:46:54;21.40;99.90
15789;DHT22;59075;50.670;6.474;2022-07-04T07:49:22;21.40;99.90
15789;DHT22;59075;50.670;6.474;2022-07-04T07:51:49;21.40;99.90
15789;DHT22;59075;50.670;6.474;2022-07-04T07:54:16;21.30;99.90
15789;DHT22;59075;50.670;6.474;2022-07-04T07:56:43;21.40;99.90
15789;DHT22;59075;50.670;6.474;2022-07-04T07:59:09;21.40;99.90
15789;DHT22;59075;50.670;6.474;2022-07-04T08:01:36;21.50;99.90
15789;DHT22;59075;50.670;6.474;2022-07-04T08:04:03;21.50;99.90
15789;DHT22;59075;50.670;6.474;2022-07-04T08:06:49;21.50;99.90
15789;DHT22;59075;50.670;6.474;2022-07-04T08:09:16;21.60;99.90
15789;DHT22;59075;50.670;6.474;2022-07-04T08:11:43;21.60;99.90
15789;DHT22;59075;50.670;6.474;2022-07-04T08:16:37;21.50;99.90
15789;DHT22;59075;50.670;6.474;2022-07-04T08:19:03;21.60;99.90
15789;DHT22;59075;50.670;6.474;2022-07-04T08:21:30;21.60;99.90
15789;DHT22;59075;50.670;6.474;2022-07-04T08:23:58;21.60;99.90
15789;DHT22;59075;50.670;6.474;2022-07-04T08:26:25;21.60;99.90
15789;DHT22;59075;50.670;6.474;2022-07-04T08:28:52;21.70;99.90
15789;DHT22;59075;50.670;6.474;2022-07-04T08:31:20;21.70;99.90
15789;DHT22;59075;50.670;6.474;2022-07-04T08:33:47;21.70;99.90
15789;DHT22;59075;50.670;6.474;2022-07-04T08:38:41;21.80;99.90
15789;DHT22;59075;50.670;6.474;2022-07-04T08:41:09;21.80;99.90
15789;DHT22;59075;50.670;6.474;2022-07-04T08:43:35;21.90;99.90
15789;DHT22;59075;50.670;6.474;2022-07-04T08:46:04;21.90;99.90
15789;DHT22;59075;50.670;6.474;2022-07-04T08:48:32;21.90;99.90
15789;DHT22;59075;50.670;6.474;2022-07-04T08:51:04;21.90;99.90
15789;DHT22;59075;50.670;6.474;2022-07-04T08:53:33;21.90;99.90
15789;DHT22;59075;50.670;6.474;2022-07-04T08:56:02;21.90;99.90
15789;DHT22;59075;50.670;6.474;2022-07-04T08:58:48;21.90;99.90
15789;DHT22;59075;50.670;6.474;2022-07-04T09:01:16;22.00;99.90
15789;DHT22;59075;50.670;6.474;2022-07-04T09:03:44;22.00;99.90
15789;DHT22;59075;50.670;6.474;2022-07-04T09:06:12;22.00;99.90
15789;DHT22;59075;50.670;6.474;2022-07-04T09:08:39;22.00;99.90
15789;DHT22;59075;50.670;6.474;2022-07-04T09:11:06;22.00;99.90
15789;DHT22;59075;50.670;6.474;2022-07-04T09:13:33;22.00;99.90
15789;DHT22;59075;50.670;6.474;2022-07-04T09:16:02;22.10;99.90
15789;DHT22;59075;50.670;6.474;2022-07-04T09:18:31;22.10;99.90
15789;DHT22;59075;50.670;6.474;2022-07-04T09:21:00;22.10;99.90
15789;DHT22;59075;50.670;6.474;2022-07-04T09:23:28;22.10;99.90
15789;DHT22;59075;50.670;6.474;2022-07-04T09:26:13;22.10;99.90
15789;DHT22;59075;50.670;6.474;2022-07-04T09:28:42;22.10;99.90
15789;DHT22;59075;50.670;6.474;2022-07-04T09:31:18;22.10;99.90
15789;DHT22;59075;50.670;6.474;2022-07-04T09:33:50;22.10;99.90
15789;DHT22;59075;50.670;6.474;2022-07-04T09:36:19;22.20;99.90
15789;DHT22;59075;50.670;6.474;2022-07-04T09:39:04;22.20;99.90
15789;DHT22;59075;50.670;6.474;2022-07-04T09:41:50;22.20;99.90
15789;DHT22;59075;50.670;6.474;2022-07-04T09:46:45;22.20;99.90
15789;DHT22;59075;50.670;6.474;2022-07-04T09:49:12;22.30;99.90
15789;DHT22;59075;50.670;6.474;2022-07-04T09:51:40;22.30;99.90
15789;DHT22;59075;50.670;6.474;2022-07-04T09:54:20;22.30;99.90
15789;DHT22;59075;50.670;6.474;2022-07-04T09:56:50;22.30;99.90
15789;DHT22;59075;50.670;6.474;2022-07-04T09:59:18;22.30;99.90
15789;DHT22;59075;50.670;6.474;2022-07-04T10:02:06;22.30;99.90
15789;DHT22;59075;50.670;6.474;2022-07-04T10:04:45;22.30;99.90
15789;DHT22;59075;50.670;6.474;2022-07-04T10:07:30;22.30;99.90
15789;DHT22;59075;50.670;6.474;2022-07-04T10:09:57;22.30;99.90
15789;DHT22;59075;50.670;6.474;2022-07-04T10:12:25;22.30;99.90
15789;DHT22;59075;50.670;6.474;2022-07-04T10:14:53;22.30;99.90
15789;DHT22;59075;50.670;6.474;2022-07-04T10:17:21;22.30;99.90
15789;DHT22;59075;50.670;6.474;2022-07-04T10:19:48;22.30;99.90
15789;DHT22;59075;50.670;6.474;2022-07-04T10:22:18;22.30;99.90
15789;DHT22;59075;50.670;6.474;2022-07-04T10:24:46;22.30;99.90
15789;DHT22;59075;50.670;6.474;2022-07-04T10:27:13;22.30;99.90
15789;DHT22;59075;50.670;6.474;2022-07-04T10:29:41;22.40;99.90
15789;DHT22;59075;50.670;6.474;2022-07-04T10:32:08;22.40;99.90
15789;DHT22;59075;50.670;6.474;2022-07-04T10:34:40;22.40;99.90
15789;DHT22;59075;50.670;6.474;2022-07-04T10:39:35;22.50;99.90
15789;DHT22;59075;50.670;6.474;2022-07-04T10:42:02;22.50;99.90
15789;DHT22;59075;50.670;6.474;2022-07-04T10:44:31;22.50;99.90
15789;DHT22;59075;50.670;6.474;2022-07-04T10:47:03;22.50;99.90
15789;DHT22;59075;50.670;6.474;2022-07-04T10:49:31;22.50;99.90
15789;DHT22;59075;50.670;6.474;2022-07-04T10:52:13;22.50;99.90
15789;DHT22;59075;50.670;6.474;2022-07-04T10:54:41;22.50;99.90
15789;DHT22;59075;50.670;6.474;2022-07-04T10:57:13;22.50;99.90
15789;DHT22;59075;50.670;6.474;2022-07-04T10:59:41;22.60;99.90
15789;DHT22;59075;50.670;6.474;2022-07-04T11:02:22;22.50;99.90
15789;DHT22;59075;50.670;6.474;2022-07-04T11:05:00;22.60;99.90
15789;DHT22;59075;50.670;6.474;2022-07-04T11:10:37;22.60;99.90
15789;DHT22;59075;50.670;6.474;2022-07-04T11:13:22;22.60;99.90
15789;DHT22;59075;50.670;6.474;2022-07-04T11:16:05;22.60;99.90
15789;DHT22;59075;50.670;6.474;2022-07-04T11:18:40;22.60;99.90
15789;DHT22;59075;50.670;6.474;2022-07-04T11:21:21;22.60;99.90
15789;DHT22;59075;50.670;6.474;2022-07-04T11:23:54;22.60;99.90
15789;DHT22;59075;50.670;6.474;2022-07-04T11:26:24;22.60;99.90
15789;DHT22;59075;50.670;6.474;2022-07-04T11:28:51;22.60;99.90
15789;DHT22;59075;50.670;6.474;2022-07-04T11:31:18;22.70;99.90
15789;DHT22;59075;50.670;6.474;2022-07-04T11:33:45;22.70;99.90
15789;DHT22;59075;50.670;6.474;2022-07-04T11:36:14;22.70;99.90
15789;DHT22;59075;50.670;6.474;2022-07-04T11:38:47;22.70;99.90
15789;DHT22;59075;50.670;6.474;2022-07-04T11:41:14;22.70;99.90
15789;DHT22;59075;50.670;6.474;2022-07-04T11:44:04;22.70;99.90
15789;DHT22;59075;50.670;6.474;2022-07-04T11:46:49;22.80;99.90
15789;DHT22;59075;50.670;6.474;2022-07-04T11:49:15;22.70;99.90
15789;DHT22;59075;50.670;6.474;2022-07-04T11:51:43;22.80;99.90
15789;DHT22;59075;50.670;6.474;2022-07-04T11:54:10;22.80;99.90
15789;DHT22;59075;50.670;6.474;2022-07-04T11:56:37;22.80;99.90
15789;DHT22;59075;50.670;6.474;2022-07-04T11:59:13;22.80;99.90
15789;DHT22;59075;50.670;6.474;2022-07-04T12:01:40;22.80;99.90
15789;DHT22;59075;50.670;6.474;2022-07-04T12:04:18;22.70;99.90
15789;DHT22;59075;50.670;6.474;2022-07-04T12:06:47;22.70;99.90
15789;DHT22;59075;50.670;6.474;2022-07-04T12:09:15;22.80;99.90
15789;DHT22;59075;50.670;6.474;2022-07-04T12:14:26;22.80;99.90
15789;DHT22;59075;50.670;6.474;2022-07-04T12:17:12;22.80;99.90
15789;DHT22;59075;50.670;6.474;2022-07-04T12:19:50;22.80;99.90
15789;DHT22;59075;50.670;6.474;2022-07-04T12:22:28;22.80;99.90
15789;DHT22;59075;50.670;6.474;2022-07-04T12:24:56;22.80;99.90
15789;DHT22;59075;50.670;6.474;2022-07-04T12:27:23;22.90;99.90
15789;DHT22;59075;50.670;6.474;2022-07-04T12:29:53;22.90;99.90
15789;DHT22;59075;50.670;6.474;2022-07-04T12:32:20;22.90;99.90
15789;DHT22;59075;50.670;6.474;2022-07-04T12:34:47;22.90;99.90
15789;DHT22;59075;50.670;6.474;2022-07-04T12:37:15;22.90;99.90
15789;DHT22;59075;50.670;6.474;2022-07-04T12:39:43;23.00;99.90
15789;DHT22;59075;50.670;6.474;2022-07-04T12:42:12;23.00;99.90
15789;DHT22;59075;50.670;6.474;2022-07-04T12:44:39;23.00;99.90
15789;DHT22;59075;50.670;6.474;2022-07-04T12:47:09;22.90;99.90
15789;DHT22;59075;50.670;6.474;2022-07-04T12:49:41;23.00;99.90
15789;DHT22;59075;50.670;6.474;2022-07-04T12:52:11;23.00;99.90
15789;DHT22;59075;50.670;6.474;2022-07-04T12:57:09;23.00;99.90
15789;DHT22;59075;50.670;6.474;2022-07-04T12:59:37;23.20;99.90
15789;DHT22;59075;50.670;6.474;2022-07-04T13:02:04;23.10;99.90
15789;DHT22;59075;50.670;6.474;2022-07-04T13:04:33;23.10;99.90
15789;DHT22;59075;50.670;6.474;2022-07-04T13:07:11;23.10;99.90
15789;DHT22;59075;50.670;6.474;2022-07-04T13:09:38;23.10;99.90
15789;DHT22;59075;50.670;6.474;2022-07-04T13:12:06;23.20;99.90
15789;DHT22;59075;50.670;6.474;2022-07-04T13:14:53;23.10;99.90
15789;DHT22;59075;50.670;6.474;2022-07-04T13:17:20;23.10;99.90
15789;DHT22;59075;50.670;6.474;2022-07-04T13:19:49;23.10;99.90
15789;DHT22;59075;50.670;6.474;2022-07-04T13:22:17;23.00;99.90
15789;DHT22;59075;50.670;6.474;2022-07-04T13:24:44;23.20;99.90
15789;DHT22;59075;50.670;6.474;2022-07-04T13:29:41;23.20;99.90
15789;DHT22;59075;50.670;6.474;2022-07-04T13:32:08;23.20;99.90
15789;DHT22;59075;50.670;6.474;2022-07-04T13:34:35;23.30;99.90
15789;DHT22;59075;50.670;6.474;2022-07-04T13:37:04;23.10;99.90
15789;DHT22;59075;50.670;6.474;2022-07-04T13:39:31;23.20;99.90
15789;DHT22;59075;50.670;6.474;2022-07-04T13:41:59;23.30;99.90
15789;DHT22;59075;50.670;6.474;2022-07-04T13:44:26;23.30;99.90
15789;DHT22;59075;50.670;6.474;2022-07-04T13:46:53;23.20;99.90
15789;DHT22;59075;50.670;6.474;2022-07-04T13:49:21;23.20;99.90
15789;DHT22;59075;50.670;6.474;2022-07-04T13:51:48;23.30;99.90
15789;DHT22;59075;50.670;6.474;2022-07-04T13:54:16;23.30;99.90
15789;DHT22;59075;50.670;6.474;2022-07-04T13:56:43;23.30;99.90
15789;DHT22;59075;50.670;6.474;2022-07-04T13:59:10;23.50;99.90
15789;DHT22;59075;50.670;6.474;2022-07-04T14:01:37;23.50;99.90
15789;DHT22;59075;50.670;6.474;2022-07-04T14:04:04;23.50;99.90
15789;DHT22;59075;50.670;6.474;2022-07-04T14:06:32;23.50;99.90
15789;DHT22;59075;50.670;6.474;2022-07-04T14:08:59;23.50;99.90
15789;DHT22;59075;50.670;6.474;2022-07-04T14:11:27;23.40;99.90
15789;DHT22;59075;50.670;6.474;2022-07-04T14:13:53;23.50;99.90
15789;DHT22;59075;50.670;6.474;2022-07-04T14:16:20;23.60;99.90
15789;DHT22;59075;50.670;6.474;2022-07-04T14:18:47;23.40;99.90
15789;DHT22;59075;50.670;6.474;2022-07-04T14:21:13;23.60;99.90
15789;DHT22;59075;50.670;6.474;2022-07-04T14:23:40;23.60;99.90
15789;DHT22;59075;50.670;6.474;2022-07-04T14:26:08;23.40;99.90
15789;DHT22;59075;50.670;6.474;2022-07-04T14:28:36;23.50;99.90
15789;DHT22;59075;50.670;6.474;2022-07-04T14:33:31;23.50;99.90
15789;DHT22;59075;50.670;6.474;2022-07-04T14:38:25;23.50;99.90
15789;DHT22;59075;50.670;6.474;2022-07-04T14:40:52;23.60;99.90
15789;DHT22;59075;50.670;6.474;2022-07-04T14:43:18;23.50;99.90
15789;DHT22;59075;50.670;6.474;2022-07-04T14:45:47;23.50;99.90
15789;DHT22;59075;50.670;6.474;2022-07-04T14:48:14;23.50;99.90
15789;DHT22;59075;50.670;6.474;2022-07-04T14:50:41;23.70;99.90
15789;DHT22;59075;50.670;6.474;2022-07-04T14:53:25;23.60;99.90
15789;DHT22;59075;50.670;6.474;2022-07-04T14:58:19;23.60;99.90
15789;DHT22;59075;50.670;6.474;2022-07-04T15:00:47;23.50;99.90
15789;DHT22;59075;50.670;6.474;2022-07-04T15:05:41;23.60;99.90
15789;DHT22;59075;50.670;6.474;2022-07-04T15:08:08;23.60;99.90
15789;DHT22;59075;50.670;6.474;2022-07-04T15:10:35;23.70;99.90
15789;DHT22;59075;50.670;6.474;2022-07-04T15:15:28;23.60;99.90
15789;DHT22;59075;50.670;6.474;2022-07-04T15:17:56;23.70;99.90
15789;DHT22;59075;50.670;6.474;2022-07-04T15:20:23;23.80;99.90
15789;DHT22;59075;50.670;6.474;2022-07-04T15:23:08;23.70;99.90
15789;DHT22;59075;50.670;6.474;2022-07-04T15:25:52;23.80;99.90
15789;DHT22;59075;50.670;6.474;2022-07-04T15:28:18;23.60;99.90
15789;DHT22;59075;50.670;6.474;2022-07-04T15:30:45;23.70;99.90
15789;DHT22;59075;50.670;6.474;2022-07-04T15:33:13;23.60;99.90
15789;DHT22;59075;50.670;6.474;2022-07-04T15:35:41;23.80;99.90
15789;DHT22;59075;50.670;6.474;2022-07-04T15:38:07;23.70;99.90
15789;DHT22;59075;50.670;6.474;2022-07-04T15:40:34;23.70;99.90
15789;DHT22;59075;50.670;6.474;2022-07-04T15:43:01;23.70;99.90
15789;DHT22;59075;50.670;6.474;2022-07-04T15:45:29;23.70;99.90
15789;DHT22;59075;50.670;6.474;2022-07-04T15:47:55;23.70;99.90
15789;DHT22;59075;50.670;6.474;2022-07-04T15:50:24;23.70;99.90
15789;DHT22;59075;50.670;6.474;2022-07-04T15:52:52;23.70;99.90
15789;DHT22;59075;50.670;6.474;2022-07-04T15:55:19;23.70;99.90
15789;DHT22;59075;50.670;6.474;2022-07-04T15:57:46;23.70;99.90
15789;DHT22;59075;50.670;6.474;2022-07-04T16:00:13;23.80;99.90
15789;DHT22;59075;50.670;6.474;2022-07-04T16:02:40;23.70;99.90
15789;DHT22;59075;50.670;6.474;2022-07-04T16:07:38;23.80;99.90
15789;DHT22;59075;50.670;6.474;2022-07-04T16:10:05;23.70;99.90
15789;DHT22;59075;50.670;6.474;2022-07-04T16:12:32;23.80;99.90
15789;DHT22;59075;50.670;6.474;2022-07-04T16:14:59;23.80;99.90
15789;DHT22;59075;50.670;6.474;2022-07-04T16:17:26;23.80;99.90
15789;DHT22;59075;50.670;6.474;2022-07-04T16:19:52;23.80;99.90
15789;DHT22;59075;50.670;6.474;2022-07-04T16:22:19;23.80;99.90
15789;DHT22;59075;50.670;6.474;2022-07-04T16:24:47;23.90;99.90
15789;DHT22;59075;50.670;6.474;2022-07-04T16:27:14;23.90;99.90
15789;DHT22;59075;50.670;6.474;2022-07-04T16:29:41;24.00;99.90
15789;DHT22;59075;50.670;6.474;2022-07-04T16:32:07;23.90;99.90
15789;DHT22;59075;50.670;6.474;2022-07-04T16:34:34;23.90;99.90
15789;DHT22;59075;50.670;6.474;2022-07-04T16:37:01;23.90;99.90
15789;DHT22;59075;50.670;6.474;2022-07-04T16:39:27;23.90;99.90
15789;DHT22;59075;50.670;6.474;2022-07-04T16:41:55;24.00;99.90
15789;DHT22;59075;50.670;6.474;2022-07-04T16:46:49;24.00;99.90
15789;DHT22;59075;50.670;6.474;2022-07-04T16:49:16;23.90;99.90